createdAt,value
2024-05-09T00:03:00.894Z,8.29
2024-05-09T00:08:06.017Z,8.23
2024-05-09T00:13:10.908Z,8.15
2024-05-09T00:18:14.355Z,8.09
2024-05-09T00:23:17.247Z,8.04
2024-05-09T00:28:20.115Z,8.03
2024-05-09T00:33:23.150Z,7.99
2024-05-09T00:38:26.046Z,7.92
2024-05-09T00:43:28.818Z,7.89
2024-05-09T00:48:32.016Z,7.84
2024-05-09T00:53:35.127Z,7.77
2024-05-09T00:58:38.850Z,7.72
2024-05-09T01:03:41.864Z,7.63
2024-05-09T01:08:44.834Z,7.52
2024-05-09T01:13:47.627Z,7.47
2024-05-09T01:18:50.613Z,7.45
2024-05-09T01:23:53.483Z,7.45
2024-05-09T01:28:56.106Z,7.37
2024-05-09T01:33:59.031Z,7.25
2024-05-09T01:39:02.016Z,7.18
2024-05-09T01:44:04.858Z,7.13
2024-05-09T01:49:08.262Z,7.14
2024-05-09T01:54:11.186Z,7.14
2024-05-09T01:59:14.020Z,7.11
2024-05-09T02:04:17.081Z,7.00
2024-05-09T02:09:19.926Z,6.93
2024-05-09T02:14:22.895Z,6.90
2024-05-09T02:19:25.788Z,6.85
2024-05-09T02:24:28.532Z,6.81
2024-05-09T02:29:31.484Z,6.64
2024-05-09T02:34:34.362Z,6.47
2024-05-09T02:39:37.038Z,6.39
2024-05-09T02:44:39.864Z,6.32
2024-05-09T02:49:42.547Z,7.57
2024-05-09T02:54:45.446Z,11.10
2024-05-09T02:59:48.137Z,11.98
2024-05-09T03:04:50.935Z,10.24
2024-05-09T03:09:53.739Z,9.22
2024-05-09T03:14:56.442Z,8.57
2024-05-09T03:19:59.837Z,8.00
2024-05-09T03:25:02.764Z,7.51
2024-05-09T03:30:07.530Z,7.23
2024-05-09T03:35:10.457Z,6.90
2024-05-09T03:40:20.472Z,6.68
2024-05-09T03:45:26.474Z,6.53
2024-05-09T03:50:33.945Z,6.40
2024-05-09T03:55:39.062Z,6.32
2024-05-09T04:00:44.907Z,6.29
2024-05-09T04:05:47.864Z,7.52
2024-05-09T04:10:50.639Z,10.98
2024-05-09T04:15:53.400Z,11.84
2024-05-09T04:20:56.937Z,10.07
2024-05-09T04:26:04.200Z,9.01
2024-05-09T04:31:06.926Z,8.37
2024-05-09T04:36:09.625Z,7.91
2024-05-09T04:41:12.503Z,7.55
2024-05-09T04:46:15.161Z,7.37
2024-05-09T04:51:17.868Z,7.30
2024-05-09T04:56:20.783Z,8.48
2024-05-09T05:01:23.597Z,12.24
2024-05-09T05:06:26.276Z,13.19
2024-05-09T05:11:29.034Z,11.31
2024-05-09T05:16:31.731Z,10.25
2024-05-09T05:21:34.442Z,9.66
2024-05-09T05:26:37.262Z,9.31
2024-05-09T05:31:43.460Z,9.11
2024-05-09T05:36:46.309Z,9.08
2024-05-09T05:41:49.073Z,9.11
2024-05-09T05:46:51.953Z,9.22
2024-05-09T05:51:54.688Z,9.39
2024-05-09T05:56:58.918Z,9.58
2024-05-09T06:02:02.237Z,9.78
2024-05-09T06:07:07.496Z,10.00
2024-05-09T06:12:10.409Z,10.23
2024-05-09T06:17:22.374Z,10.51
2024-05-09T06:22:25.450Z,10.86
2024-05-09T06:27:28.310Z,11.22
2024-05-09T06:32:31.239Z,11.63
2024-05-09T06:37:37.112Z,12.08
2024-05-09T06:42:39.925Z,12.52
2024-05-09T06:47:42.938Z,12.97
2024-05-09T06:52:48.738Z,13.34
2024-05-09T06:57:51.683Z,13.71
2024-05-09T07:02:54.830Z,14.02
2024-05-09T07:07:59.417Z,14.26
2024-05-09T07:13:02.438Z,14.45
2024-05-09T07:18:17.153Z,14.70
2024-05-09T07:23:21.561Z,14.97
2024-05-09T07:28:24.996Z,15.20
2024-05-09T07:33:28.189Z,15.46
2024-05-09T07:38:31.310Z,15.69
2024-05-09T07:43:35.933Z,15.91
2024-05-09T07:53:50.650Z,16.24
2024-05-09T07:58:56.577Z,16.46
2024-05-09T08:03:59.514Z,16.80
2024-05-09T08:09:07.684Z,17.12
2024-05-09T08:14:13.481Z,17.40
2024-05-09T08:19:16.174Z,17.63
2024-05-09T08:24:18.903Z,17.81
2024-05-09T08:29:22.106Z,17.99
2024-05-09T08:34:26.238Z,18.17
2024-05-09T08:39:29.734Z,18.30
2024-05-09T08:44:37.308Z,18.43
2024-05-09T08:49:41.657Z,18.56
2024-05-09T08:54:46.332Z,18.70
2024-05-09T08:59:50.843Z,18.78
2024-05-09T09:05:05.457Z,18.89
2024-05-09T09:10:08.816Z,19.09
2024-05-09T09:15:11.514Z,19.25
2024-05-09T09:20:18.888Z,19.34
2024-05-09T09:25:25.763Z,19.46
2024-05-09T09:30:36.168Z,19.64
2024-05-09T09:54:44.728Z,20.04
2024-05-09T09:59:50.448Z,20.20
2024-05-09T10:04:54.598Z,20.36
2024-05-09T10:09:57.911Z,20.52
2024-05-09T10:15:07.897Z,20.66
2024-05-09T10:20:18.318Z,20.94
2024-05-09T10:25:25.027Z,21.08
2024-05-09T10:30:34.042Z,21.16
2024-05-09T10:35:39.352Z,21.32
2024-05-09T10:40:44.293Z,21.51
2024-05-09T10:45:50.509Z,21.55
2024-05-09T10:50:53.348Z,21.56
2024-05-09T10:56:06.107Z,21.49
2024-05-09T11:01:09.837Z,21.59
2024-05-09T11:06:14.865Z,21.72
2024-05-09T11:11:17.772Z,21.72
2024-05-09T11:16:21.254Z,21.91
2024-05-09T11:21:24.672Z,21.98
2024-05-09T11:26:29.249Z,21.95
2024-05-09T11:31:32.083Z,22.07
2024-05-09T11:36:34.896Z,22.23
2024-05-09T11:41:38.859Z,22.56
2024-05-09T11:52:21.164Z,22.80
2024-05-09T11:57:24.502Z,22.82
2024-05-09T12:02:27.302Z,22.95
2024-05-09T12:07:30.152Z,23.03
2024-05-09T12:12:34.262Z,23.00
2024-05-09T12:17:38.243Z,23.12
2024-05-09T12:22:40.998Z,23.13
2024-05-09T12:27:43.914Z,22.84
2024-05-09T12:32:46.694Z,22.63
2024-05-09T12:37:49.607Z,22.79
2024-05-09T12:42:52.374Z,22.97
2024-05-09T12:47:55.446Z,23.02
2024-05-09T12:52:58.459Z,23.09
2024-05-09T12:58:01.261Z,23.18
2024-05-09T13:03:04.407Z,23.31
2024-05-09T13:08:08.117Z,23.30
2024-05-09T13:13:11.451Z,23.18
2024-05-09T13:18:14.257Z,23.05
2024-05-09T13:23:16.940Z,22.93
2024-05-09T13:28:19.682Z,22.82
2024-05-09T13:33:22.847Z,22.85
2024-05-09T13:38:25.983Z,22.89
2024-05-09T13:43:28.767Z,22.95
2024-05-09T13:48:31.834Z,23.02
2024-05-09T13:53:34.592Z,22.92
2024-05-09T13:58:37.404Z,22.95
2024-05-09T14:03:40.275Z,22.89
2024-05-09T14:08:46.938Z,22.91
2024-05-09T14:13:49.793Z,23.01
2024-05-09T14:18:55.510Z,23.06
2024-05-09T14:24:01.222Z,23.22
2024-05-09T14:29:03.951Z,23.41
2024-05-09T14:34:06.767Z,23.54
2024-05-09T14:39:09.743Z,23.54
2024-05-09T14:44:12.845Z,23.54
2024-05-09T14:49:15.557Z,23.33
2024-05-09T14:54:18.352Z,23.17
2024-05-09T14:59:20.982Z,23.25
2024-05-09T15:04:23.996Z,23.13
2024-05-09T15:09:26.951Z,22.97
2024-05-09T15:14:29.755Z,23.27
2024-05-09T15:19:32.931Z,23.64
2024-05-09T15:24:36.098Z,23.85
2024-05-09T15:29:39.314Z,23.90
2024-05-09T15:34:42.781Z,23.91
2024-05-09T15:39:45.534Z,23.96
2024-05-09T15:44:53.121Z,24.01
2024-05-09T15:49:56.390Z,24.04
2024-05-09T15:54:59.552Z,24.00
2024-05-09T16:00:02.721Z,23.94
2024-05-09T16:05:07.637Z,23.82
2024-05-09T16:10:13.209Z,23.62
2024-05-09T16:15:18.929Z,23.38
2024-05-09T16:20:33.977Z,23.11
2024-05-09T16:25:47.725Z,22.86
2024-05-09T16:30:51.337Z,22.67
2024-05-09T16:35:54.023Z,22.40
2024-05-09T16:40:56.828Z,22.16
2024-05-09T16:45:59.621Z,21.97
2024-05-09T16:51:02.306Z,21.79
2024-05-09T16:56:06.345Z,21.65
2024-05-09T17:01:09.083Z,21.43
2024-05-09T17:06:12.232Z,21.22
2024-05-09T17:11:15.569Z,21.05
2024-05-09T17:16:18.756Z,20.93
2024-05-09T17:21:21.665Z,20.80
2024-05-09T17:26:24.562Z,20.66
2024-05-09T17:31:27.454Z,20.48
2024-05-09T17:36:30.449Z,20.27
2024-05-09T17:41:33.169Z,20.08
2024-05-09T17:46:36.209Z,19.97
2024-05-09T17:51:39.019Z,19.87
2024-05-09T17:56:44.343Z,19.78
2024-05-09T18:01:47.244Z,19.70
2024-05-09T18:06:50.839Z,19.60
2024-05-09T18:11:54.001Z,19.51
2024-05-09T18:16:56.898Z,19.43
2024-05-09T18:21:59.582Z,19.34
2024-05-09T18:27:02.704Z,19.21
2024-05-09T18:32:06.031Z,19.05
2024-05-09T18:37:09.779Z,18.90
2024-05-09T18:42:12.624Z,18.79
2024-05-09T18:47:19.315Z,18.69
2024-05-09T18:52:23.872Z,18.59
2024-05-09T18:57:26.555Z,18.47
2024-05-09T19:02:29.467Z,18.32
2024-05-09T19:07:32.257Z,18.18
2024-05-09T19:12:34.992Z,18.07
2024-05-09T19:17:37.880Z,17.95
2024-05-09T19:22:40.663Z,17.82
2024-05-09T19:27:43.684Z,17.66
2024-05-09T19:32:46.594Z,17.49
2024-05-09T19:37:51.539Z,17.29
2024-05-09T19:42:54.259Z,17.07
2024-05-09T19:47:57.527Z,16.86
2024-05-09T19:53:00.338Z,16.76
2024-05-09T19:58:05.383Z,16.67
2024-05-09T20:03:09.919Z,16.60
2024-05-09T20:08:13.444Z,16.53
2024-05-09T20:13:16.304Z,16.43
2024-05-09T20:18:19.231Z,16.27
2024-05-09T20:23:22.068Z,16.09
2024-05-09T20:28:24.799Z,15.96
2024-05-09T20:33:28.700Z,15.89
2024-05-09T20:38:31.399Z,15.81
2024-05-09T20:43:34.122Z,15.72
2024-05-09T20:48:37.082Z,15.63
2024-05-09T20:53:39.891Z,15.50
2024-05-09T20:58:42.588Z,15.41
2024-05-09T21:03:45.373Z,15.36
2024-05-09T21:08:48.436Z,15.29
2024-05-09T21:13:51.357Z,15.18
2024-05-09T21:18:54.037Z,15.07
2024-05-09T21:23:56.795Z,14.96
2024-05-09T21:28:59.615Z,14.87
2024-05-09T21:34:02.428Z,14.80
2024-05-09T21:39:05.407Z,14.71
2024-05-09T21:44:08.214Z,14.65
2024-05-09T21:49:11.175Z,14.58
2024-05-09T21:54:14.144Z,14.51
2024-05-09T21:59:16.914Z,14.45
2024-05-09T22:04:19.735Z,14.42
2024-05-09T22:09:22.717Z,14.41
2024-05-09T22:14:25.518Z,14.42
2024-05-09T22:19:29.813Z,14.37
2024-05-09T22:24:32.939Z,14.27
2024-05-09T22:29:35.668Z,14.17
2024-05-09T22:34:38.430Z,14.11
2024-05-09T22:39:41.188Z,14.03
2024-05-09T22:44:43.968Z,13.93
2024-05-09T22:49:46.612Z,13.84
2024-05-09T22:54:49.433Z,13.75
2024-05-09T22:59:52.476Z,13.66
2024-05-09T23:04:55.398Z,13.58
2024-05-09T23:09:58.564Z,13.54
2024-05-09T23:15:01.293Z,13.49
2024-05-09T23:20:06.852Z,13.43
2024-05-09T23:25:09.789Z,13.35
2024-05-09T23:30:18.318Z,13.30
2024-05-09T23:35:29.084Z,13.25
2024-05-09T23:45:37.743Z,13.18
2024-05-09T23:50:41.109Z,13.14
2024-05-09T23:55:44.585Z,13.05
